sensor_id;sensor_type;location;lat;lon;timestamp;P1;durP1;ratioP1;P2;durP2;ratioP2
12308;SDS011;6217;48.150;17.142;2023-03-05T00:02:08;10.40;;;6.15;;
12308;SDS011;6217;48.150;17.142;2023-03-05T00:06:14;11.38;;;5.88;;
12308;SDS011;6217;48.150;17.142;2023-03-05T00:10:21;13.82;;;7.95;;
12308;SDS011;6217;48.150;17.142;2023-03-05T00:14:27;14.75;;;6.90;;
12308;SDS011;6217;48.150;17.142;2023-03-05T00:18:33;12.73;;;6.72;;
12308;SDS011;6217;48.150;17.142;2023-03-05T00:22:39;10.35;;;6.63;;
12308;SDS011;6217;48.150;17.142;2023-03-05T00:26:45;12.25;;;7.32;;
12308;SDS011;6217;48.150;17.142;2023-03-05T00:30:51;10.23;;;6.40;;
12308;SDS011;6217;48.150;17.142;2023-03-05T00:34:57;9.50;;;6.38;;
12308;SDS011;6217;48.150;17.142;2023-03-05T00:39:03;12.18;;;7.75;;
12308;SDS011;6217;48.150;17.142;2023-03-05T00:43:10;18.45;;;7.07;;
12308;SDS011;6217;48.150;17.142;2023-03-05T00:47:16;16.73;;;8.25;;
12308;SDS011;6217;48.150;17.142;2023-03-05T00:51:23;13.73;;;9.32;;
12308;SDS011;6217;48.150;17.142;2023-03-05T00:55:29;12.57;;;7.88;;
12308;SDS011;6217;48.150;17.142;2023-03-05T00:59:35;13.35;;;7.38;;
12308;SDS011;6217;48.150;17.142;2023-03-05T01:03:41;13.75;;;8.10;;
12308;SDS011;6217;48.150;17.142;2023-03-05T01:07:47;16.33;;;8.57;;
12308;SDS011;6217;48.150;17.142;2023-03-05T01:11:57;14.90;;;8.93;;
12308;SDS011;6217;48.150;17.142;2023-03-05T01:16:06;16.27;;;9.70;;
12308;SDS011;6217;48.150;17.142;2023-03-05T01:20:12;14.85;;;8.68;;
12308;SDS011;6217;48.150;17.142;2023-03-05T01:24:20;17.30;;;9.50;;
12308;SDS011;6217;48.150;17.142;2023-03-05T01:28:26;16.75;;;8.77;;
12308;SDS011;6217;48.150;17.142;2023-03-05T01:32:33;14.45;;;9.95;;
12308;SDS011;6217;48.150;17.142;2023-03-05T01:36:40;11.73;;;7.75;;
12308;SDS011;6217;48.150;17.142;2023-03-05T01:40:46;13.20;;;9.05;;
12308;SDS011;6217;48.150;17.142;2023-03-05T01:45:07;14.32;;;8.68;;
12308;SDS011;6217;48.150;17.142;2023-03-05T01:49:25;15.27;;;8.98;;
12308;SDS011;6217;48.150;17.142;2023-03-05T01:53:38;18.98;;;10.70;;
12308;SDS011;6217;48.150;17.142;2023-03-05T01:57:45;20.25;;;9.45;;
12308;SDS011;6217;48.150;17.142;2023-03-05T02:01:58;15.63;;;8.80;;
12308;SDS011;6217;48.150;17.142;2023-03-05T02:06:05;20.00;;;10.68;;
12308;SDS011;6217;48.150;17.142;2023-03-05T02:10:22;19.92;;;10.25;;
12308;SDS011;6217;48.150;17.142;2023-03-05T02:14:37;19.25;;;9.73;;
12308;SDS011;6217;48.150;17.142;2023-03-05T02:18:45;17.80;;;10.18;;
12308;SDS011;6217;48.150;17.142;2023-03-05T02:22:51;16.33;;;10.40;;
12308;SDS011;6217;48.150;17.142;2023-03-05T02:26:57;14.77;;;10.18;;
12308;SDS011;6217;48.150;17.142;2023-03-05T02:31:15;16.23;;;8.80;;
12308;SDS011;6217;48.150;17.142;2023-03-05T02:35:25;18.80;;;10.38;;
12308;SDS011;6217;48.150;17.142;2023-03-05T02:39:31;20.67;;;9.82;;
12308;SDS011;6217;48.150;17.142;2023-03-05T02:43:37;17.77;;;9.38;;
12308;SDS011;6217;48.150;17.142;2023-03-05T02:47:43;15.20;;;9.00;;
12308;SDS011;6217;48.150;17.142;2023-03-05T02:51:49;18.85;;;9.88;;
12308;SDS011;6217;48.150;17.142;2023-03-05T02:55:56;17.77;;;9.00;;
12308;SDS011;6217;48.150;17.142;2023-03-05T03:00:02;16.13;;;8.95;;
12308;SDS011;6217;48.150;17.142;2023-03-05T03:04:10;17.40;;;10.52;;
12308;SDS011;6217;48.150;17.142;2023-03-05T03:08:16;19.23;;;9.63;;
12308;SDS011;6217;48.150;17.142;2023-03-05T03:12:22;15.82;;;9.68;;
12308;SDS011;6217;48.150;17.142;2023-03-05T03:16:28;18.08;;;8.82;;
12308;SDS011;6217;48.150;17.142;2023-03-05T03:20:36;16.95;;;10.00;;
12308;SDS011;6217;48.150;17.142;2023-03-05T03:24:43;14.65;;;9.65;;
12308;SDS011;6217;48.150;17.142;2023-03-05T03:28:49;15.20;;;9.30;;
12308;SDS011;6217;48.150;17.142;2023-03-05T03:32:55;14.77;;;9.35;;
12308;SDS011;6217;48.150;17.142;2023-03-05T03:37:01;17.77;;;9.40;;
12308;SDS011;6217;48.150;17.142;2023-03-05T03:41:07;16.83;;;10.38;;
12308;SDS011;6217;48.150;17.142;2023-03-05T03:45:13;16.52;;;9.02;;
12308;SDS011;6217;48.150;17.142;2023-03-05T03:49:23;13.23;;;8.82;;
12308;SDS011;6217;48.150;17.142;2023-03-05T03:53:30;17.00;;;10.18;;
12308;SDS011;6217;48.150;17.142;2023-03-05T03:57:36;18.35;;;11.23;;
12308;SDS011;6217;48.150;17.142;2023-03-05T04:01:42;16.02;;;9.60;;
12308;SDS011;6217;48.150;17.142;2023-03-05T04:05:48;16.45;;;9.55;;
12308;SDS011;6217;48.150;17.142;2023-03-05T04:09:54;19.27;;;10.13;;
12308;SDS011;6217;48.150;17.142;2023-03-05T04:14:00;15.93;;;9.82;;
12308;SDS011;6217;48.150;17.142;2023-03-05T04:18:06;17.92;;;10.02;;
12308;SDS011;6217;48.150;17.142;2023-03-05T04:22:12;19.13;;;11.95;;
12308;SDS011;6217;48.150;17.142;2023-03-05T04:26:20;18.92;;;9.05;;
12308;SDS011;6217;48.150;17.142;2023-03-05T04:30:26;23.23;;;11.07;;
12308;SDS011;6217;48.150;17.142;2023-03-05T04:34:32;18.15;;;10.88;;
12308;SDS011;6217;48.150;17.142;2023-03-05T04:38:39;20.90;;;10.55;;
12308;SDS011;6217;48.150;17.142;2023-03-05T04:42:45;17.67;;;10.57;;
12308;SDS011;6217;48.150;17.142;2023-03-05T04:46:51;20.13;;;11.65;;
12308;SDS011;6217;48.150;17.142;2023-03-05T04:50:57;19.63;;;11.77;;
12308;SDS011;6217;48.150;17.142;2023-03-05T04:55:03;22.42;;;11.85;;
12308;SDS011;6217;48.150;17.142;2023-03-05T04:59:09;18.27;;;11.35;;
12308;SDS011;6217;48.150;17.142;2023-03-05T05:03:15;16.77;;;11.85;;
12308;SDS011;6217;48.150;17.142;2023-03-05T05:07:21;17.38;;;9.00;;
12308;SDS011;6217;48.150;17.142;2023-03-05T05:11:27;19.73;;;10.75;;
12308;SDS011;6217;48.150;17.142;2023-03-05T05:15:33;18.42;;;9.80;;
12308;SDS011;6217;48.150;17.142;2023-03-05T05:19:39;16.38;;;10.98;;
12308;SDS011;6217;48.150;17.142;2023-03-05T05:23:45;17.20;;;12.82;;
12308;SDS011;6217;48.150;17.142;2023-03-05T05:27:51;18.17;;;11.07;;
12308;SDS011;6217;48.150;17.142;2023-03-05T05:31:56;15.10;;;10.20;;
12308;SDS011;6217;48.150;17.142;2023-03-05T05:36:03;15.52;;;10.57;;
12308;SDS011;6217;48.150;17.142;2023-03-05T05:40:10;15.57;;;8.82;;
12308;SDS011;6217;48.150;17.142;2023-03-05T05:44:17;16.02;;;10.35;;
12308;SDS011;6217;48.150;17.142;2023-03-05T05:48:23;15.13;;;10.00;;
12308;SDS011;6217;48.150;17.142;2023-03-05T05:52:29;15.35;;;10.55;;
12308;SDS011;6217;48.150;17.142;2023-03-05T05:56:35;14.85;;;9.40;;
12308;SDS011;6217;48.150;17.142;2023-03-05T06:00:41;18.33;;;11.00;;
12308;SDS011;6217;48.150;17.142;2023-03-05T06:04:47;17.08;;;10.32;;
12308;SDS011;6217;48.150;17.142;2023-03-05T06:08:53;18.35;;;10.25;;
12308;SDS011;6217;48.150;17.142;2023-03-05T06:13:01;17.92;;;9.55;;
12308;SDS011;6217;48.150;17.142;2023-03-05T06:17:07;15.57;;;9.65;;
12308;SDS011;6217;48.150;17.142;2023-03-05T06:21:13;17.70;;;10.13;;
12308;SDS011;6217;48.150;17.142;2023-03-05T06:25:22;13.48;;;9.23;;
12308;SDS011;6217;48.150;17.142;2023-03-05T06:29:28;15.25;;;9.80;;
12308;SDS011;6217;48.150;17.142;2023-03-05T06:33:34;17.42;;;10.65;;
12308;SDS011;6217;48.150;17.142;2023-03-05T06:37:40;18.17;;;11.38;;
12308;SDS011;6217;48.150;17.142;2023-03-05T06:41:48;13.95;;;9.63;;
12308;SDS011;6217;48.150;17.142;2023-03-05T06:46:03;14.13;;;9.02;;
12308;SDS011;6217;48.150;17.142;2023-03-05T06:50:12;17.42;;;10.27;;
12308;SDS011;6217;48.150;17.142;2023-03-05T06:54:18;16.42;;;10.10;;
12308;SDS011;6217;48.150;17.142;2023-03-05T06:58:23;13.63;;;10.20;;
12308;SDS011;6217;48.150;17.142;2023-03-05T07:02:29;17.33;;;10.43;;
12308;SDS011;6217;48.150;17.142;2023-03-05T07:06:36;13.77;;;9.88;;
12308;SDS011;6217;48.150;17.142;2023-03-05T07:10:43;12.55;;;8.65;;
12308;SDS011;6217;48.150;17.142;2023-03-05T07:14:49;14.90;;;9.57;;
12308;SDS011;6217;48.150;17.142;2023-03-05T07:18:55;14.82;;;9.60;;
12308;SDS011;6217;48.150;17.142;2023-03-05T07:23:03;14.73;;;8.88;;
12308;SDS011;6217;48.150;17.142;2023-03-05T07:27:09;14.68;;;10.07;;
12308;SDS011;6217;48.150;17.142;2023-03-05T07:31:16;13.40;;;9.35;;
12308;SDS011;6217;48.150;17.142;2023-03-05T07:35:25;15.93;;;8.25;;
12308;SDS011;6217;48.150;17.142;2023-03-05T07:39:31;12.45;;;9.60;;
12308;SDS011;6217;48.150;17.142;2023-03-05T07:43:37;13.85;;;8.75;;
12308;SDS011;6217;48.150;17.142;2023-03-05T07:47:43;12.80;;;7.80;;
12308;SDS011;6217;48.150;17.142;2023-03-05T07:51:49;15.13;;;7.95;;
12308;SDS011;6217;48.150;17.142;2023-03-05T07:55:55;13.35;;;8.27;;
12308;SDS011;6217;48.150;17.142;2023-03-05T08:00:01;14.32;;;9.68;;
12308;SDS011;6217;48.150;17.142;2023-03-05T08:04:16;15.07;;;7.85;;
12308;SDS011;6217;48.150;17.142;2023-03-05T08:08:22;12.50;;;9.05;;
12308;SDS011;6217;48.150;17.142;2023-03-05T08:12:28;16.77;;;9.57;;
12308;SDS011;6217;48.150;17.142;2023-03-05T08:16:34;13.65;;;9.00;;
12308;SDS011;6217;48.150;17.142;2023-03-05T08:20:40;15.68;;;11.38;;
12308;SDS011;6217;48.150;17.142;2023-03-05T08:24:46;11.80;;;9.60;;
12308;SDS011;6217;48.150;17.142;2023-03-05T08:28:52;13.95;;;9.45;;
12308;SDS011;6217;48.150;17.142;2023-03-05T08:32:58;14.95;;;9.43;;
12308;SDS011;6217;48.150;17.142;2023-03-05T08:37:04;10.82;;;8.70;;
12308;SDS011;6217;48.150;17.142;2023-03-05T08:41:12;15.02;;;9.82;;
12308;SDS011;6217;48.150;17.142;2023-03-05T08:45:19;14.07;;;9.50;;
12308;SDS011;6217;48.150;17.142;2023-03-05T08:49:25;13.10;;;8.32;;
12308;SDS011;6217;48.150;17.142;2023-03-05T08:53:31;14.80;;;9.68;;
12308;SDS011;6217;48.150;17.142;2023-03-05T08:57:36;16.75;;;10.70;;
12308;SDS011;6217;48.150;17.142;2023-03-05T09:01:42;17.95;;;11.10;;
12308;SDS011;6217;48.150;17.142;2023-03-05T09:05:48;16.15;;;9.77;;
12308;SDS011;6217;48.150;17.142;2023-03-05T09:09:55;15.98;;;9.63;;
12308;SDS011;6217;48.150;17.142;2023-03-05T09:14:02;18.55;;;11.52;;
12308;SDS011;6217;48.150;17.142;2023-03-05T09:18:09;15.40;;;10.05;;
12308;SDS011;6217;48.150;17.142;2023-03-05T09:22:15;14.85;;;10.20;;
12308;SDS011;6217;48.150;17.142;2023-03-05T09:26:21;17.08;;;11.45;;
12308;SDS011;6217;48.150;17.142;2023-03-05T09:30:26;17.20;;;9.73;;
12308;SDS011;6217;48.150;17.142;2023-03-05T09:34:32;21.35;;;11.35;;
12308;SDS011;6217;48.150;17.142;2023-03-05T09:38:38;16.95;;;10.38;;
12308;SDS011;6217;48.150;17.142;2023-03-05T09:43:02;16.77;;;11.13;;
12308;SDS011;6217;48.150;17.142;2023-03-05T09:52:15;16.73;;;11.15;;
12308;SDS011;6217;48.150;17.142;2023-03-05T09:56:28;16.23;;;11.05;;
12308;SDS011;6217;48.150;17.142;2023-03-05T10:00:46;14.43;;;10.52;;
12308;SDS011;6217;48.150;17.142;2023-03-05T10:05:16;8.35;;;4.20;;
12308;SDS011;6217;48.150;17.142;2023-03-05T10:09:50;15.45;;;9.73;;
12308;SDS011;6217;48.150;17.142;2023-03-05T10:14:04;13.98;;;9.48;;
12308;SDS011;6217;48.150;17.142;2023-03-05T10:18:20;12.18;;;9.77;;
12308;SDS011;6217;48.150;17.142;2023-03-05T10:27:18;10.95;;;7.90;;
12308;SDS011;6217;48.150;17.142;2023-03-05T10:32:01;12.52;;;7.43;;
12308;SDS011;6217;48.150;17.142;2023-03-05T10:36:19;11.75;;;8.88;;
12308;SDS011;6217;48.150;17.142;2023-03-05T10:40:55;12.23;;;8.80;;
12308;SDS011;6217;48.150;17.142;2023-03-05T10:45:11;16.15;;;10.70;;
12308;SDS011;6217;48.150;17.142;2023-03-05T10:49:28;11.65;;;7.80;;
12308;SDS011;6217;48.150;17.142;2023-03-05T10:53:42;10.88;;;7.93;;
12308;SDS011;6217;48.150;17.142;2023-03-05T10:57:52;13.85;;;7.70;;
12308;SDS011;6217;48.150;17.142;2023-03-05T11:02:06;13.00;;;8.43;;
12308;SDS011;6217;48.150;17.142;2023-03-05T11:06:13;10.80;;;8.07;;
12308;SDS011;6217;48.150;17.142;2023-03-05T11:10:20;11.57;;;7.40;;
12308;SDS011;6217;48.150;17.142;2023-03-05T11:14:26;11.82;;;8.13;;
12308;SDS011;6217;48.150;17.142;2023-03-05T11:18:37;10.35;;;6.80;;
12308;SDS011;6217;48.150;17.142;2023-03-05T11:22:58;13.48;;;7.65;;
12308;SDS011;6217;48.150;17.142;2023-03-05T11:27:50;11.93;;;8.35;;
12308;SDS011;6217;48.150;17.142;2023-03-05T11:32:13;10.10;;;7.10;;
12308;SDS011;6217;48.150;17.142;2023-03-05T11:36:29;8.25;;;5.97;;
12308;SDS011;6217;48.150;17.142;2023-03-05T11:40:39;11.13;;;5.70;;
12308;SDS011;6217;48.150;17.142;2023-03-05T11:44:47;9.55;;;4.15;;
12308;SDS011;6217;48.150;17.142;2023-03-05T11:48:56;9.70;;;4.45;;
12308;SDS011;6217;48.150;17.142;2023-03-05T11:53:03;8.90;;;4.70;;
12308;SDS011;6217;48.150;17.142;2023-03-05T11:57:15;8.60;;;4.03;;
12308;SDS011;6217;48.150;17.142;2023-03-05T12:01:23;6.15;;;4.10;;
12308;SDS011;6217;48.150;17.142;2023-03-05T12:05:33;6.03;;;3.35;;
12308;SDS011;6217;48.150;17.142;2023-03-05T12:09:43;7.45;;;4.38;;
12308;SDS011;6217;48.150;17.142;2023-03-05T12:13:55;8.13;;;4.00;;
12308;SDS011;6217;48.150;17.142;2023-03-05T12:23:15;8.40;;;4.53;;
12308;SDS011;6217;48.150;17.142;2023-03-05T12:27:34;5.90;;;3.85;;
12308;SDS011;6217;48.150;17.142;2023-03-05T12:31:41;6.10;;;3.45;;
12308;SDS011;6217;48.150;17.142;2023-03-05T12:35:49;10.27;;;4.53;;
12308;SDS011;6217;48.150;17.142;2023-03-05T12:40:00;7.32;;;4.47;;
12308;SDS011;6217;48.150;17.142;2023-03-05T12:44:24;7.65;;;4.00;;
12308;SDS011;6217;48.150;17.142;2023-03-05T12:52:44;7.78;;;3.97;;
12308;SDS011;6217;48.150;17.142;2023-03-05T12:56:51;6.85;;;3.25;;
12308;SDS011;6217;48.150;17.142;2023-03-05T13:01:05;7.43;;;3.40;;
12308;SDS011;6217;48.150;17.142;2023-03-05T13:05:38;13.05;;;3.25;;
12308;SDS011;6217;48.150;17.142;2023-03-05T13:09:58;8.10;;;4.43;;
12308;SDS011;6217;48.150;17.142;2023-03-05T13:14:04;6.93;;;3.38;;
12308;SDS011;6217;48.150;17.142;2023-03-05T13:18:45;7.30;;;2.70;;
12308;SDS011;6217;48.150;17.142;2023-03-05T13:27:28;9.68;;;3.00;;
12308;SDS011;6217;48.150;17.142;2023-03-05T13:31:40;6.60;;;2.78;;
12308;SDS011;6217;48.150;17.142;2023-03-05T13:35:49;4.93;;;2.67;;
12308;SDS011;6217;48.150;17.142;2023-03-05T13:39:59;3.55;;;3.08;;
12308;SDS011;6217;48.150;17.142;2023-03-05T13:44:16;8.48;;;3.63;;
12308;SDS011;6217;48.150;17.142;2023-03-05T13:48:26;5.57;;;3.10;;
12308;SDS011;6217;48.150;17.142;2023-03-05T13:52:33;4.10;;;2.75;;
12308;SDS011;6217;48.150;17.142;2023-03-05T14:01:12;3.95;;;2.47;;
12308;SDS011;6217;48.150;17.142;2023-03-05T14:05:43;3.80;;;2.78;;
12308;SDS011;6217;48.150;17.142;2023-03-05T14:09:50;4.75;;;2.83;;
12308;SDS011;6217;48.150;17.142;2023-03-05T14:14:07;5.57;;;3.15;;
12308;SDS011;6217;48.150;17.142;2023-03-05T14:18:20;6.03;;;2.65;;
12308;SDS011;6217;48.150;17.142;2023-03-05T14:22:30;4.03;;;2.97;;
12308;SDS011;6217;48.150;17.142;2023-03-05T14:26:46;4.82;;;2.90;;
12308;SDS011;6217;48.150;17.142;2023-03-05T14:31:00;3.33;;;2.78;;
12308;SDS011;6217;48.150;17.142;2023-03-05T14:35:15;4.80;;;2.58;;
12308;SDS011;6217;48.150;17.142;2023-03-05T14:44:01;4.05;;;2.33;;
12308;SDS011;6217;48.150;17.142;2023-03-05T14:48:16;4.05;;;2.50;;
12308;SDS011;6217;48.150;17.142;2023-03-05T14:52:25;4.82;;;2.40;;
12308;SDS011;6217;48.150;17.142;2023-03-05T14:56:34;5.28;;;3.22;;
12308;SDS011;6217;48.150;17.142;2023-03-05T15:00:40;4.68;;;1.90;;
12308;SDS011;6217;48.150;17.142;2023-03-05T15:04:46;5.63;;;2.55;;
12308;SDS011;6217;48.150;17.142;2023-03-05T15:08:53;3.70;;;2.33;;
12308;SDS011;6217;48.150;17.142;2023-03-05T15:12:58;3.03;;;2.05;;
12308;SDS011;6217;48.150;17.142;2023-03-05T15:17:04;4.55;;;2.10;;
12308;SDS011;6217;48.150;17.142;2023-03-05T15:21:10;4.05;;;2.22;;
12308;SDS011;6217;48.150;17.142;2023-03-05T15:25:17;3.40;;;2.40;;
12308;SDS011;6217;48.150;17.142;2023-03-05T15:29:25;3.03;;;2.00;;
12308;SDS011;6217;48.150;17.142;2023-03-05T15:33:31;3.83;;;1.77;;
12308;SDS011;6217;48.150;17.142;2023-03-05T15:37:38;5.55;;;3.05;;
12308;SDS011;6217;48.150;17.142;2023-03-05T15:41:44;5.05;;;2.38;;
12308;SDS011;6217;48.150;17.142;2023-03-05T15:45:50;2.25;;;1.50;;
12308;SDS011;6217;48.150;17.142;2023-03-05T15:49:55;5.20;;;2.28;;
12308;SDS011;6217;48.150;17.142;2023-03-05T15:54:01;6.90;;;2.88;;
12308;SDS011;6217;48.150;17.142;2023-03-05T15:58:07;3.97;;;1.80;;
12308;SDS011;6217;48.150;17.142;2023-03-05T16:02:18;8.18;;;2.03;;
12308;SDS011;6217;48.150;17.142;2023-03-05T16:06:24;2.67;;;1.63;;
12308;SDS011;6217;48.150;17.142;2023-03-05T16:10:30;5.50;;;2.05;;
12308;SDS011;6217;48.150;17.142;2023-03-05T16:14:36;4.00;;;1.75;;
12308;SDS011;6217;48.150;17.142;2023-03-05T16:18:44;5.30;;;1.50;;
12308;SDS011;6217;48.150;17.142;2023-03-05T16:22:51;2.15;;;1.60;;
12308;SDS011;6217;48.150;17.142;2023-03-05T16:26:57;4.25;;;1.73;;
12308;SDS011;6217;48.150;17.142;2023-03-05T16:31:03;3.47;;;1.75;;
12308;SDS011;6217;48.150;17.142;2023-03-05T16:35:09;4.78;;;1.60;;
12308;SDS011;6217;48.150;17.142;2023-03-05T16:39:16;1.98;;;1.30;;
12308;SDS011;6217;48.150;17.142;2023-03-05T16:43:24;3.83;;;1.60;;
12308;SDS011;6217;48.150;17.142;2023-03-05T16:47:30;2.75;;;1.48;;
12308;SDS011;6217;48.150;17.142;2023-03-05T16:51:36;3.40;;;1.40;;
12308;SDS011;6217;48.150;17.142;2023-03-05T16:55:42;5.20;;;1.27;;
12308;SDS011;6217;48.150;17.142;2023-03-05T16:59:48;6.30;;;1.08;;
12308;SDS011;6217;48.150;17.142;2023-03-05T17:03:55;4.43;;;1.10;;
12308;SDS011;6217;48.150;17.142;2023-03-05T17:08:03;3.80;;;1.20;;
12308;SDS011;6217;48.150;17.142;2023-03-05T17:12:11;2.17;;;1.42;;
12308;SDS011;6217;48.150;17.142;2023-03-05T17:16:18;1.58;;;1.30;;
12308;SDS011;6217;48.150;17.142;2023-03-05T17:20:25;2.15;;;1.15;;
12308;SDS011;6217;48.150;17.142;2023-03-05T17:24:31;1.48;;;1.20;;
12308;SDS011;6217;48.150;17.142;2023-03-05T17:28:37;3.17;;;1.10;;
12308;SDS011;6217;48.150;17.142;2023-03-05T17:32:43;6.18;;;1.52;;
12308;SDS011;6217;48.150;17.142;2023-03-05T17:36:49;1.65;;;1.10;;
12308;SDS011;6217;48.150;17.142;2023-03-05T17:40:55;6.20;;;1.50;;
12308;SDS011;6217;48.150;17.142;2023-03-05T17:45:01;2.60;;;1.10;;
12308;SDS011;6217;48.150;17.142;2023-03-05T17:49:08;1.55;;;0.93;;
12308;SDS011;6217;48.150;17.142;2023-03-05T17:53:14;2.92;;;1.10;;
12308;SDS011;6217;48.150;17.142;2023-03-05T17:57:20;3.08;;;1.20;;
12308;SDS011;6217;48.150;17.142;2023-03-05T18:01:27;3.67;;;1.30;;
12308;SDS011;6217;48.150;17.142;2023-03-05T18:05:36;1.75;;;1.27;;
12308;SDS011;6217;48.150;17.142;2023-03-05T18:09:42;3.35;;;1.25;;
12308;SDS011;6217;48.150;17.142;2023-03-05T18:13:48;3.25;;;1.50;;
12308;SDS011;6217;48.150;17.142;2023-03-05T18:17:54;1.40;;;0.93;;
12308;SDS011;6217;48.150;17.142;2023-03-05T18:22:00;1.85;;;1.30;;
12308;SDS011;6217;48.150;17.142;2023-03-05T18:26:06;4.80;;;1.27;;
12308;SDS011;6217;48.150;17.142;2023-03-05T18:30:12;3.10;;;1.35;;
12308;SDS011;6217;48.150;17.142;2023-03-05T18:34:18;2.33;;;1.40;;
12308;SDS011;6217;48.150;17.142;2023-03-05T18:38:26;4.80;;;1.40;;
12308;SDS011;6217;48.150;17.142;2023-03-05T18:42:34;3.38;;;1.30;;
12308;SDS011;6217;48.150;17.142;2023-03-05T18:46:41;1.83;;;1.33;;
12308;SDS011;6217;48.150;17.142;2023-03-05T18:50:50;3.80;;;1.88;;
12308;SDS011;6217;48.150;17.142;2023-03-05T18:54:58;1.97;;;1.30;;
12308;SDS011;6217;48.150;17.142;2023-03-05T18:59:04;2.65;;;1.63;;
12308;SDS011;6217;48.150;17.142;2023-03-05T19:03:10;2.85;;;1.25;;
12308;SDS011;6217;48.150;17.142;2023-03-05T19:07:16;2.47;;;1.50;;
12308;SDS011;6217;48.150;17.142;2023-03-05T19:11:22;4.13;;;1.30;;
12308;SDS011;6217;48.150;17.142;2023-03-05T19:15:29;1.48;;;1.33;;
12308;SDS011;6217;48.150;17.142;2023-03-05T19:19:35;3.50;;;1.60;;
12308;SDS011;6217;48.150;17.142;2023-03-05T19:23:41;3.50;;;1.63;;
12308;SDS011;6217;48.150;17.142;2023-03-05T19:27:47;3.60;;;2.00;;
12308;SDS011;6217;48.150;17.142;2023-03-05T19:31:53;2.78;;;1.48;;
12308;SDS011;6217;48.150;17.142;2023-03-05T19:35:59;2.38;;;1.50;;
12308;SDS011;6217;48.150;17.142;2023-03-05T19:40:05;4.22;;;1.58;;
12308;SDS011;6217;48.150;17.142;2023-03-05T19:44:11;2.58;;;1.55;;
12308;SDS011;6217;48.150;17.142;2023-03-05T19:48:17;9.52;;;3.83;;
12308;SDS011;6217;48.150;17.142;2023-03-05T19:52:23;4.22;;;1.80;;
12308;SDS011;6217;48.150;17.142;2023-03-05T19:56:30;2.92;;;1.63;;
12308;SDS011;6217;48.150;17.142;2023-03-05T20:00:36;3.60;;;1.60;;
12308;SDS011;6217;48.150;17.142;2023-03-05T20:04:42;4.80;;;1.73;;
12308;SDS011;6217;48.150;17.142;2023-03-05T20:08:48;2.85;;;1.80;;
12308;SDS011;6217;48.150;17.142;2023-03-05T20:12:54;5.55;;;1.90;;
12308;SDS011;6217;48.150;17.142;2023-03-05T20:17:01;4.35;;;2.05;;
12308;SDS011;6217;48.150;17.142;2023-03-05T20:21:07;2.92;;;1.27;;
12308;SDS011;6217;48.150;17.142;2023-03-05T20:25:14;4.43;;;1.70;;
12308;SDS011;6217;48.150;17.142;2023-03-05T20:29:22;3.78;;;1.67;;
12308;SDS011;6217;48.150;17.142;2023-03-05T20:33:28;6.13;;;1.67;;
12308;SDS011;6217;48.150;17.142;2023-03-05T20:37:50;6.70;;;1.65;;
12308;SDS011;6217;48.150;17.142;2023-03-05T20:42:24;5.20;;;1.70;;
12308;SDS011;6217;48.150;17.142;2023-03-05T20:46:32;2.53;;;1.40;;
12308;SDS011;6217;48.150;17.142;2023-03-05T20:50:40;3.92;;;1.83;;
12308;SDS011;6217;48.150;17.142;2023-03-05T20:54:46;4.18;;;1.92;;
12308;SDS011;6217;48.150;17.142;2023-03-05T20:58:53;4.47;;;2.53;;
12308;SDS011;6217;48.150;17.142;2023-03-05T21:02:59;5.28;;;1.90;;
12308;SDS011;6217;48.150;17.142;2023-03-05T21:07:05;4.05;;;1.58;;
12308;SDS011;6217;48.150;17.142;2023-03-05T21:11:11;4.75;;;2.10;;
12308;SDS011;6217;48.150;17.142;2023-03-05T21:15:23;5.25;;;2.42;;
12308;SDS011;6217;48.150;17.142;2023-03-05T21:19:32;3.83;;;2.15;;
12308;SDS011;6217;48.150;17.142;2023-03-05T21:23:40;2.95;;;1.60;;
12308;SDS011;6217;48.150;17.142;2023-03-05T21:27:50;5.28;;;1.77;;
12308;SDS011;6217;48.150;17.142;2023-03-05T21:32:20;2.47;;;2.17;;
12308;SDS011;6217;48.150;17.142;2023-03-05T21:36:26;4.47;;;1.65;;
12308;SDS011;6217;48.150;17.142;2023-03-05T21:40:32;3.13;;;1.98;;
12308;SDS011;6217;48.150;17.142;2023-03-05T21:44:41;4.65;;;1.83;;
12308;SDS011;6217;48.150;17.142;2023-03-05T21:48:46;4.80;;;2.65;;
12308;SDS011;6217;48.150;17.142;2023-03-05T21:52:52;4.07;;;1.73;;
12308;SDS011;6217;48.150;17.142;2023-03-05T21:56:59;2.55;;;1.70;;
12308;SDS011;6217;48.150;17.142;2023-03-05T22:01:04;2.50;;;1.58;;
12308;SDS011;6217;48.150;17.142;2023-03-05T22:05:11;2.92;;;1.58;;
12308;SDS011;6217;48.150;17.142;2023-03-05T22:09:19;2.67;;;1.70;;
12308;SDS011;6217;48.150;17.142;2023-03-05T22:13:25;3.47;;;1.60;;
12308;SDS011;6217;48.150;17.142;2023-03-05T22:17:31;2.42;;;1.60;;
12308;SDS011;6217;48.150;17.142;2023-03-05T22:21:37;5.07;;;1.50;;
12308;SDS011;6217;48.150;17.142;2023-03-05T22:25:43;6.13;;;1.70;;
12308;SDS011;6217;48.150;17.142;2023-03-05T22:29:49;2.63;;;1.27;;
12308;SDS011;6217;48.150;17.142;2023-03-05T22:33:55;3.38;;;1.35;;
12308;SDS011;6217;48.150;17.142;2023-03-05T22:38:01;1.70;;;1.48;;
12308;SDS011;6217;48.150;17.142;2023-03-05T22:42:07;2.50;;;1.77;;
12308;SDS011;6217;48.150;17.142;2023-03-05T22:46:17;4.70;;;1.70;;
12308;SDS011;6217;48.150;17.142;2023-03-05T22:50:26;5.78;;;1.55;;
12308;SDS011;6217;48.150;17.142;2023-03-05T22:54:32;3.75;;;1.52;;
12308;SDS011;6217;48.150;17.142;2023-03-05T22:58:38;3.25;;;1.83;;
12308;SDS011;6217;48.150;17.142;2023-03-05T23:02:45;3.97;;;2.38;;
12308;SDS011;6217;48.150;17.142;2023-03-05T23:06:51;6.22;;;2.10;;
12308;SDS011;6217;48.150;17.142;2023-03-05T23:10:59;4.40;;;2.17;;
12308;SDS011;6217;48.150;17.142;2023-03-05T23:15:06;6.28;;;2.40;;
12308;SDS011;6217;48.150;17.142;2023-03-05T23:19:15;3.17;;;2.00;;
12308;SDS011;6217;48.150;17.142;2023-03-05T23:23:21;4.32;;;1.80;;
12308;SDS011;6217;48.150;17.142;2023-03-05T23:27:27;5.45;;;2.05;;
12308;SDS011;6217;48.150;17.142;2023-03-05T23:31:33;6.28;;;3.70;;
12308;SDS011;6217;48.150;17.142;2023-03-05T23:35:40;7.03;;;2.40;;
12308;SDS011;6217;48.150;17.142;2023-03-05T23:39:56;5.47;;;3.05;;
12308;SDS011;6217;48.150;17.142;2023-03-05T23:44:02;6.18;;;2.08;;
12308;SDS011;6217;48.150;17.142;2023-03-05T23:48:08;8.13;;;3.55;;
12308;SDS011;6217;48.150;17.142;2023-03-05T23:52:14;7.53;;;2.70;;
12308;SDS011;6217;48.150;17.142;2023-03-05T23:56:20;7.95;;;3.78;;
